Time;durP1;ratioP1;P1;durP2;ratioP2;P2;SDS_P1;SDS_P2;PMS_P1;PMS_P2;Temp;Humidity;BMP_temperature;BMP_pressure;BME280_temperature;BME280_humidity;BME280_pressure;Samples;Min_cycle;Max_cycle;Signal;HPM_P1;HPM_P2
2023/06/02 00:00:16;;;;;;;5.95;4.13;;;;;;;;;;5134784;27;20066;-58
2023/06/02 00:02:43;;;;;;;6.57;4.28;;;;;;;;;;5130976;27;20051;-58
2023/06/02 00:05:11;;;;;;;6.38;4.35;;;;;;;;;;5131342;27;20051;-59
2023/06/02 00:07:38;;;;;;;5.75;4.10;;;;;;;;;;5134497;27;20054;-59
2023/06/02 00:10:05;;;;;;;8.68;4.43;;;;;;;;;;5134338;27;20059;-59
2023/06/02 00:12:32;;;;;;;7.20;4.18;;;;;;;;;;5133177;27;20054;-59
2023/06/02 00:15:00;;;;;;;6.57;4.20;;;;;;;;;;5134316;27;20062;-59
2023/06/02 00:17:28;;;;;;;4.60;3.45;;;;;;;;;;5133275;27;20058;-58
2023/06/02 00:19:56;;;;;;;8.02;4.10;;;;;;;;;;5133013;27;20055;-60
2023/06/02 00:22:29;;;;;;;7.28;3.97;;;;;;;;;;5134164;27;20073;-58
2023/06/02 00:24:56;;;;;;;9.40;4.10;;;;;;;;;;5134354;27;20062;-60
2023/06/02 00:27:22;;;;;;;7.63;3.92;;;;;;;;;;5133747;27;20065;-59
2023/06/02 00:29:50;;;;;;;7.57;4.57;;;;;;;;;;5133962;27;20047;-59
2023/06/02 00:32:16;;;;;;;6.75;3.90;;;;;;;;;;5133359;27;20054;-59
2023/06/02 00:34:45;;;;;;;7.95;3.67;;;;;;;;;;5132072;27;20054;-59
2023/06/02 00:37:12;;;;;;;5.82;3.72;;;;;;;;;;5133774;27;20047;-59
2023/06/02 00:39:39;;;;;;;7.88;4.18;;;;;;;;;;5134224;27;20062;-59
2023/06/02 00:42:06;;;;;;;8.77;3.97;;;;;;;;;;5131596;27;20051;-59
2023/06/02 00:44:33;;;;;;;7.30;4.15;;;;;;;;;;5134064;27;20058;-60
2023/06/02 00:47:00;;;;;;;7.78;4.35;;;;;;;;;;5133982;27;20054;-59
2023/06/02 00:49:27;;;;;;;6.68;4.00;;;;;;;;;;5132331;27;20047;-59
2023/06/02 00:51:55;;;;;;;6.65;4.22;;;;;;;;;;5133127;27;20058;-58
2023/06/02 00:54:22;;;;;;;5.68;4.40;;;;;;;;;;5133357;27;20055;-58
2023/06/02 00:56:51;;;;;;;7.85;3.88;;;;;;;;;;5133881;27;20051;-60
2023/06/02 00:59:18;;;;;;;5.77;4.20;;;;;;;;;;5133974;27;20055;-60
2023/06/02 01:01:48;;;;;;;4.65;4.10;;;;;;;;;;5132620;27;20427;-60
2023/06/02 01:04:15;;;;;;;5.60;3.92;;;;;;;;;;5131030;27;20058;-60
2023/06/02 01:06:43;;;;;;;7.93;4.18;;;;;;;;;;5131746;27;20062;-60
2023/06/02 01:09:13;;;;;;;7.43;4.20;;;;;;;;;;5125359;27;20047;-59
2023/06/02 01:11:40;;;;;;;9.80;4.95;;;;;;;;;;5112621;28;20059;-59
2023/06/02 01:14:06;;;;;;;7.05;4.68;;;;;;;;;;5122221;28;20471;-58
2023/06/02 01:16:33;;;;;;;7.55;3.70;;;;;;;;;;5133332;28;20074;-58
2023/06/02 01:19:00;;;;;;;9.85;4.95;;;;;;;;;;5130140;27;20043;-59
2023/06/02 01:21:28;;;;;;;8.38;4.00;;;;;;;;;;5133537;28;20055;-59
2023/06/02 01:23:57;;;;;;;7.82;4.38;;;;;;;;;;5134633;27;20063;-58
2023/06/02 01:26:25;;;;;;;8.38;4.05;;;;;;;;;;5138186;27;20062;-58
2023/06/02 01:28:51;;;;;;;9.85;4.22;;;;;;;;;;5137973;27;20070;-58
2023/06/02 01:31:21;;;;;;;9.48;4.40;;;;;;;;;;5137387;27;20062;-58
2023/06/02 01:33:48;;;;;;;;;;;;;;;;;;5134248;27;20051;-59
2023/06/02 01:36:14;;;;;;;8.93;3.83;;;;;;;;;;5137462;27;19919;-59
2023/06/02 01:38:42;;;;;;;5.55;3.70;;;;;;;;;;5137652;27;20050;-59
2023/06/02 01:41:12;;;;;;;7.38;3.65;;;;;;;;;;5134916;27;20081;-60
2023/06/02 01:43:39;;;;;;;9.32;3.80;;;;;;;;;;5137242;27;20070;-59
2023/06/02 01:46:06;;;;;;;8.93;3.80;;;;;;;;;;5135933;27;20407;-60
2023/06/02 01:48:33;;;;;;;8.45;4.07;;;;;;;;;;5133620;27;20051;-59
2023/06/02 01:51:00;;;;;;;8.48;4.20;;;;;;;;;;5137504;27;20132;-59
2023/06/02 01:53:27;;;;;;;7.97;4.22;;;;;;;;;;5137049;27;20046;-59
2023/06/02 01:55:54;;;;;;;10.80;4.18;;;;;;;;;;5136697;27;20058;-59
2023/06/02 01:58:22;;;;;;;5.40;3.60;;;;;;;;;;5137121;27;20395;-59
2023/06/02 02:00:49;;;;;;;7.10;3.92;;;;;;;;;;5137332;27;20047;-59
2023/06/02 02:03:17;;;;;;;8.75;3.88;;;;;;;;;;5134225;27;20047;-58
2023/06/02 02:05:44;;;;;;;8.10;4.00;;;;;;;;;;5136896;27;20399;-58
2023/06/02 02:08:12;;;;;;;8.25;3.80;;;;;;;;;;5134983;27;20044;-58
2023/06/02 02:10:38;;;;;;;9.35;4.15;;;;;;;;;;5137081;27;20483;-58
2023/06/02 02:13:05;;;;;;;8.57;4.07;;;;;;;;;;5137141;27;20055;-59
2023/06/02 02:15:33;;;;;;;6.10;3.58;;;;;;;;;;5136888;27;20051;-59
2023/06/02 02:18:00;;;;;;;8.18;4.30;;;;;;;;;;5133237;27;20058;-59
2023/06/02 02:20:27;;;;;;;9.38;3.78;;;;;;;;;;5136767;27;20482;-59
2023/06/02 02:22:54;;;;;;;7.18;4.10;;;;;;;;;;5133456;27;20054;-60
2023/06/02 02:25:21;;;;;;;8.60;4.13;;;;;;;;;;5136446;27;20062;-59
2023/06/02 02:27:48;;;;;;;7.80;3.97;;;;;;;;;;5136405;27;20062;-59
2023/06/02 02:30:15;;;;;;;8.20;4.05;;;;;;;;;;5134790;27;20055;-59
2023/06/02 02:32:44;;;;;;;9.63;4.15;;;;;;;;;;5136510;27;20051;-59
2023/06/02 02:35:11;;;;;;;9.45;4.05;;;;;;;;;;5135345;27;20422;-59
2023/06/02 02:37:38;;;;;;;9.85;4.22;;;;;;;;;;5136190;27;20047;-59
2023/06/02 02:40:05;;;;;;;6.68;3.38;;;;;;;;;;5136231;27;20415;-59
2023/06/02 02:42:33;;;;;;;9.10;3.78;;;;;;;;;;5136115;27;20054;-59
2023/06/02 02:45:00;;;;;;;8.20;3.20;;;;;;;;;;5135398;27;20062;-59
2023/06/02 02:47:27;;;;;;;11.48;4.05;;;;;;;;;;5133991;27;20419;-58
2023/06/02 02:49:55;;;;;;;7.60;3.20;;;;;;;;;;5136226;27;20047;-59
2023/06/02 02:52:24;;;;;;;7.80;3.55;;;;;;;;;;5135761;27;20046;-59
2023/06/02 02:54:50;;;;;;;8.43;3.70;;;;;;;;;;5134871;27;20518;-59
2023/06/02 02:57:17;;;;;;;7.05;2.65;;;;;;;;;;5136096;27;20066;-59
2023/06/02 02:59:44;;;;;;;8.90;3.28;;;;;;;;;;5133973;27;20039;-59
2023/06/02 03:02:12;;;;;;;8.20;3.30;;;;;;;;;;5133030;27;20051;-59
2023/06/02 03:04:40;;;;;;;11.68;2.80;;;;;;;;;;5133392;27;20070;-60
2023/06/02 03:07:09;;;;;;;7.15;3.00;;;;;;;;;;5136009;27;20055;-59
2023/06/02 03:09:36;;;;;;;10.60;3.65;;;;;;;;;;5136114;27;20047;-60
2023/06/02 03:12:03;;;;;;;8.25;3.45;;;;;;;;;;5135889;27;20058;-60
2023/06/02 03:14:30;;;;;;;11.40;3.08;;;;;;;;;;5133197;27;20050;-60
2023/06/02 03:16:57;;;;;;;10.80;3.53;;;;;;;;;;5133824;27;20058;-60
2023/06/02 03:19:26;;;;;;;7.80;2.92;;;;;;;;;;5135720;27;20399;-59
2023/06/02 03:21:55;;;;;;;9.02;3.38;;;;;;;;;;5133717;27;20051;-59
2023/06/02 03:24:24;;;;;;;12.38;3.47;;;;;;;;;;5135884;27;20051;-59
2023/06/02 03:26:55;;;;;;;12.47;3.57;;;;;;;;;;5135600;27;20380;-60
2023/06/02 03:29:22;;;;;;;9.07;3.10;;;;;;;;;;5133060;27;20047;-59
2023/06/02 03:31:50;;;;;;;6.07;2.70;;;;;;;;;;5114629;28;20054;-59
2023/06/02 03:34:17;;;;;;;9.38;3.08;;;;;;;;;;5115131;28;20055;-59
2023/06/02 03:36:44;;;;;;;11.82;3.50;;;;;;;;;;5114798;28;20062;-60
2023/06/02 03:39:12;;;;;;;10.45;3.38;;;;;;;;;;5114774;28;20052;-60
2023/06/02 03:41:41;;;;;;;9.27;3.83;;;;;;;;;;5114778;28;20051;-60
2023/06/02 03:44:07;;;;;;;8.35;3.08;;;;;;;;;;5116519;27;20519;-59
2023/06/02 03:46:34;;;;;;;6.97;2.85;;;;;;;;;;5132894;27;20070;-59
2023/06/02 03:49:02;;;;;;;7.97;2.95;;;;;;;;;;5135085;27;20055;-59
2023/06/02 03:51:29;;;;;;;11.18;3.40;;;;;;;;;;5134898;27;20051;-60
2023/06/02 03:53:56;;;;;;;9.02;3.00;;;;;;;;;;5134341;27;20479;-59
2023/06/02 03:56:23;;;;;;;10.02;3.30;;;;;;;;;;5132197;27;20062;-60
2023/06/02 03:58:51;;;;;;;8.55;3.20;;;;;;;;;;5133661;27;20047;-60
2023/06/02 04:01:18;;;;;;;9.20;3.10;;;;;;;;;;5131461;27;20066;-59
2023/06/02 04:03:45;;;;;;;11.65;3.65;;;;;;;;;;5134981;27;20051;-59
2023/06/02 04:06:12;;;;;;;9.40;3.22;;;;;;;;;;5134748;27;20047;-59
2023/06/02 04:08:39;;;;;;;11.77;3.28;;;;;;;;;;5134633;27;20051;-59
2023/06/02 04:11:06;;;;;;;10.90;3.83;;;;;;;;;;5131330;27;20105;-59
2023/06/02 04:13:32;;;;;;;13.52;3.47;;;;;;;;;;5114048;28;20051;-59
2023/06/02 04:16:01;;;;;;;8.73;3.60;;;;;;;;;;5127676;27;20051;-59
2023/06/02 04:18:28;;;;;;;13.93;4.40;;;;;;;;;;5129571;27;20051;-59
2023/06/02 04:20:55;;;;;;;11.20;3.70;;;;;;;;;;5132186;27;20061;-59
2023/06/02 04:23:22;;;;;;;8.25;3.38;;;;;;;;;;5132033;27;20055;-59
2023/06/02 04:25:49;;;;;;;13.60;3.60;;;;;;;;;;5133974;27;20047;-59
2023/06/02 04:28:16;;;;;;;11.27;3.75;;;;;;;;;;5134138;27;20407;-59
2023/06/02 04:30:43;;;;;;;10.27;4.13;;;;;;;;;;5131374;27;20047;-59
2023/06/02 04:33:12;;;;;;;9.95;4.30;;;;;;;;;;5133030;27;20055;-59
2023/06/02 04:35:39;;;;;;;9.43;3.53;;;;;;;;;;5131428;27;20510;-59
2023/06/02 04:38:06;;;;;;;9.13;3.65;;;;;;;;;;5126995;27;20051;-60
2023/06/02 04:40:33;;;;;;;10.65;3.67;;;;;;;;;;5131109;27;20050;-59
2023/06/02 04:43:00;;;;;;;9.25;4.10;;;;;;;;;;5133831;27;20070;-59
2023/06/02 04:45:27;;;;;;;11.88;4.07;;;;;;;;;;5130936;27;20046;-59
2023/06/02 04:47:54;;;;;;;11.98;3.70;;;;;;;;;;5133740;27;20393;-58
2023/06/02 04:50:22;;;;;;;9.13;3.67;;;;;;;;;;5129779;27;20087;-58
2023/06/02 04:52:49;;;;;;;7.60;3.33;;;;;;;;;;5133506;27;20051;-57
2023/06/02 04:55:15;;;;;;;9.68;3.63;;;;;;;;;;5112756;28;20059;-58
2023/06/02 04:57:42;;;;;;;10.48;3.67;;;;;;;;;;5113619;28;20051;-58
2023/06/02 05:00:10;;;;;;;7.82;3.90;;;;;;;;;;5123502;27;20055;-58
2023/06/02 05:02:37;;;;;;;9.63;3.90;;;;;;;;;;5131639;27;20399;-58
2023/06/02 05:05:05;;;;;;;11.93;3.95;;;;;;;;;;5128560;27;20051;-58
2023/06/02 05:07:33;;;;;;;10.48;3.70;;;;;;;;;;5129080;27;20506;-58
2023/06/02 05:10:00;;;;;;;11.13;4.00;;;;;;;;;;5131462;27;20059;-58
2023/06/02 05:12:27;;;;;;;13.98;4.55;;;;;;;;;;5127193;27;20380;-60
2023/06/02 05:14:54;;;;;;;10.48;5.97;;;;;;;;;;5131893;27;20058;-60
2023/06/02 05:17:22;;;;;;;12.65;4.18;;;;;;;;;;5131991;27;20055;-60
2023/06/02 05:19:49;;;;;;;11.95;4.25;;;;;;;;;;5133102;28;20051;-59
2023/06/02 05:22:16;;;;;;;8.45;4.03;;;;;;;;;;5133265;28;20051;-60
2023/06/02 05:24:44;;;;;;;9.15;3.85;;;;;;;;;;5133429;28;20051;-59
2023/06/02 05:27:11;;;;;;;13.18;4.25;;;;;;;;;;5133481;28;20062;-59
2023/06/02 05:29:38;;;;;;;10.30;4.00;;;;;;;;;;5131143;27;20062;-59
2023/06/02 05:32:06;;;;;;;11.00;3.67;;;;;;;;;;5132654;27;20051;-61
2023/06/02 05:34:33;;;;;;;8.40;3.63;;;;;;;;;;5128702;27;20504;-59
2023/06/02 05:37:00;;;;;;;13.93;3.38;;;;;;;;;;5112533;28;20507;-57
2023/06/02 05:39:27;;;;;;;8.98;3.20;;;;;;;;;;5112982;28;20048;-57
2023/06/02 05:41:55;;;;;;;9.73;4.22;;;;;;;;;;5112857;28;20048;-57
2023/06/02 05:44:22;;;;;;;7.20;3.63;;;;;;;;;;5121624;27;20475;-57
2023/06/02 05:46:48;;;;;;;11.23;3.92;;;;;;;;;;5132915;28;20062;-57
2023/06/02 05:49:15;;;;;;;11.35;3.70;;;;;;;;;;5131199;27;20043;-57
2023/06/02 05:51:42;;;;;;;7.43;3.67;;;;;;;;;;5132258;28;20078;-57
2023/06/02 05:54:09;;;;;;;10.65;3.50;;;;;;;;;;5132475;28;20058;-57
2023/06/02 05:56:36;;;;;;;12.63;3.95;;;;;;;;;;5129986;28;20051;-58
2023/06/02 05:59:05;;;;;;;9.05;3.78;;;;;;;;;;5129603;27;20070;-58
2023/06/02 06:01:31;;;;;;;10.38;3.85;;;;;;;;;;5130202;28;20047;-57
2023/06/02 06:03:58;;;;;;;10.45;3.80;;;;;;;;;;5129326;28;20051;-58
2023/06/02 06:06:25;;;;;;;12.65;4.07;;;;;;;;;;5131681;28;20047;-58
2023/06/02 06:08:52;;;;;;;9.60;3.75;;;;;;;;;;5129950;27;20062;-58
2023/06/02 06:11:19;;;;;;;8.60;3.53;;;;;;;;;;5134063;27;20051;-57
2023/06/02 06:13:46;;;;;;;9.25;3.35;;;;;;;;;;5133696;27;20043;-58
2023/06/02 06:16:14;;;;;;;11.13;4.00;;;;;;;;;;5131914;27;20407;-58
2023/06/02 06:18:41;;;;;;;9.82;3.42;;;;;;;;;;5135586;27;20051;-60
2023/06/02 06:21:07;;;;;;;9.35;3.33;;;;;;;;;;5135145;27;20047;-58
2023/06/02 06:23:34;;;;;;;9.50;3.67;;;;;;;;;;5134835;27;20051;-58
2023/06/02 06:26:01;;;;;;;9.13;3.53;;;;;;;;;;5135450;27;20055;-58
2023/06/02 06:28:28;;;;;;;9.05;3.60;;;;;;;;;;5135393;27;20058;-58
2023/06/02 06:30:55;;;;;;;9.88;3.53;;;;;;;;;;5132273;27;20047;-58
2023/06/02 06:33:23;;;;;;;9.27;3.25;;;;;;;;;;5134715;27;20051;-58
2023/06/02 06:35:50;;;;;;;8.02;3.53;;;;;;;;;;5130856;27;20048;-58
2023/06/02 06:38:17;;;;;;;13.32;3.70;;;;;;;;;;5133988;27;20529;-58
2023/06/02 06:40:44;;;;;;;10.32;3.40;;;;;;;;;;5133903;27;20051;-58
2023/06/02 06:43:10;;;;;;;10.85;3.90;;;;;;;;;;5135019;27;21537;-58
2023/06/02 06:45:37;;;;;;;9.63;3.50;;;;;;;;;;5131431;27;20051;-58
2023/06/02 06:48:05;;;;;;;10.02;3.70;;;;;;;;;;5106590;27;20063;-58
2023/06/02 06:50:33;;;;;;;9.25;3.03;;;;;;;;;;5123083;27;21489;-58
2023/06/02 06:53:02;;;;;;;9.25;4.00;;;;;;;;;;5127212;27;20483;-58
2023/06/02 06:55:29;;;;;;;10.45;3.60;;;;;;;;;;5127577;27;20427;-58
2023/06/02 06:57:56;;;;;;;8.65;3.28;;;;;;;;;;5129292;27;20065;-58
2023/06/02 07:00:23;;;;;;;11.05;3.22;;;;;;;;;;5123541;27;20055;-58
2023/06/02 07:02:51;;;;;;;9.15;3.67;;;;;;;;;;5127511;27;20059;-58
2023/06/02 07:05:17;;;;;;;9.07;3.30;;;;;;;;;;5126940;27;20117;-58
2023/06/02 07:07:46;;;;;;;9.68;3.38;;;;;;;;;;5128204;27;20063;-58
2023/06/02 07:10:14;;;;;;;8.13;3.23;;;;;;;;;;5134824;27;20039;-57
2023/06/02 07:12:40;;;;;;;6.93;3.30;;;;;;;;;;5133134;27;20055;-57
2023/06/02 07:15:08;;;;;;;7.20;3.50;;;;;;;;;;5130797;27;20047;-57
2023/06/02 07:17:35;;;;;;;7.47;3.25;;;;;;;;;;5132426;27;20043;-57
2023/06/02 07:20:02;;;;;;;5.30;3.22;;;;;;;;;;5133446;27;20487;-56
2023/06/02 07:22:28;;;;;;;7.88;3.15;;;;;;;;;;5134070;27;20055;-56
2023/06/02 07:24:57;;;;;;;7.78;3.42;;;;;;;;;;5133146;27;20051;-56
2023/06/02 07:27:24;;;;;;;9.20;4.07;;;;;;;;;;5134650;27;20047;-57
2023/06/02 07:29:50;;;;;;;7.47;3.65;;;;;;;;;;5122342;27;20055;-57
2023/06/02 07:32:18;;;;;;;8.80;3.65;;;;;;;;;;5132784;27;20055;-57
2023/06/02 07:34:45;;;;;;;8.43;3.63;;;;;;;;;;5134189;27;20047;-57
2023/06/02 07:37:12;;;;;;;8.98;3.83;;;;;;;;;;5133870;27;20066;-57
2023/06/02 07:39:39;;;;;;;8.35;3.58;;;;;;;;;;5132915;27;20062;-57
2023/06/02 07:42:07;;;;;;;8.23;3.90;;;;;;;;;;5141484;27;20058;-57
2023/06/02 07:44:34;;;;;;;9.80;3.50;;;;;;;;;;5134024;27;20054;-60
2023/06/02 07:47:01;;;;;;;9.60;3.45;;;;;;;;;;5133472;27;20055;-59
2023/06/02 07:49:28;;;;;;;9.02;3.50;;;;;;;;;;5133239;27;20062;-60
2023/06/02 07:51:55;;;;;;;11.95;4.00;;;;;;;;;;5133866;27;20046;-60
2023/06/02 07:54:22;;;;;;;7.38;3.40;;;;;;;;;;5135839;27;20522;-59
2023/06/02 07:56:50;;;;;;;7.55;3.70;;;;;;;;;;5134235;27;20056;-59
2023/06/02 07:59:19;;;;;;;9.95;3.55;;;;;;;;;;5132660;27;20058;-59
2023/06/02 08:01:45;;;;;;;7.60;3.47;;;;;;;;;;5121433;27;20051;-59
2023/06/02 08:04:12;;;;;;;7.20;3.60;;;;;;;;;;5133778;27;20051;-60
2023/06/02 08:06:40;;;;;;;8.75;3.75;;;;;;;;;;5133620;27;20058;-60
2023/06/02 08:09:07;;;;;;;6.97;3.53;;;;;;;;;;5131504;27;20047;-60
2023/06/02 08:11:34;;;;;;;7.22;3.45;;;;;;;;;;5132902;27;20412;-59
2023/06/02 08:14:00;;;;;;;9.38;3.63;;;;;;;;;;5132376;27;20124;-60
2023/06/02 08:16:28;;;;;;;7.75;3.08;;;;;;;;;;5131039;27;20051;-59
2023/06/02 08:18:55;;;;;;;8.43;4.25;;;;;;;;;;5130479;27;20051;-60
2023/06/02 08:21:22;;;;;;;8.63;3.75;;;;;;;;;;5130231;27;20039;-59
2023/06/02 08:23:49;;;;;;;9.45;3.47;;;;;;;;;;5128312;27;20043;-57
2023/06/02 08:26:17;;;;;;;7.43;3.33;;;;;;;;;;5129881;27;20069;-57
2023/06/02 08:28:49;;;;;;;7.65;3.25;;;;;;;;;;5132972;27;20051;-57
2023/06/02 08:31:18;;;;;;;6.00;2.97;;;;;;;;;;5129336;27;20110;-57
2023/06/02 08:33:47;;;;;;;8.45;3.65;;;;;;;;;;5129665;27;20062;-57
2023/06/02 08:36:17;;;;;;;6.90;2.72;;;;;;;;;;5129292;27;20054;-57
2023/06/02 08:38:44;;;;;;;8.80;3.45;;;;;;;;;;5140124;27;20422;-58
2023/06/02 08:41:12;;;;;;;7.72;3.17;;;;;;;;;;5132829;27;20491;-58
2023/06/02 08:43:38;;;;;;;7.50;3.20;;;;;;;;;;5132593;27;20062;-58
2023/06/02 08:46:06;;;;;;;4.95;3.13;;;;;;;;;;5130854;27;20047;-58
2023/06/02 08:48:34;;;;;;;7.75;3.55;;;;;;;;;;5131277;27;20468;-58
2023/06/02 08:51:03;;;;;;;5.93;3.38;;;;;;;;;;5130914;27;20050;-58
2023/06/02 08:53:31;;;;;;;4.97;2.75;;;;;;;;;;5130408;27;20051;-60
2023/06/02 08:55:58;;;;;;;5.53;2.80;;;;;;;;;;5132142;27;20047;-59
2023/06/02 08:58:27;;;;;;;5.80;3.58;;;;;;;;;;5129965;27;20058;-58
2023/06/02 09:00:54;;;;;;;6.03;3.33;;;;;;;;;;5130905;27;20043;-59
2023/06/02 09:03:21;;;;;;;7.78;3.20;;;;;;;;;;5130372;27;20059;-59
2023/06/02 09:05:48;;;;;;;8.40;3.45;;;;;;;;;;5119978;27;20500;-59
2023/06/02 09:08:16;;;;;;;8.32;3.33;;;;;;;;;;5128871;27;20047;-59
2023/06/02 09:10:45;;;;;;;11.05;3.53;;;;;;;;;;5131508;27;20043;-58
2023/06/02 09:13:29;;;;;;;8.60;3.65;;;;;;;;;;5128773;27;20054;-58
2023/06/02 09:15:56;;;;;;;6.68;3.28;;;;;;;;;;5126901;27;20507;-60
2023/06/02 09:18:23;;;;;;;7.97;3.22;;;;;;;;;;5127671;27;20055;-60
2023/06/02 09:20:50;;;;;;;5.47;3.00;;;;;;;;;;5132020;28;20054;-60
2023/06/02 09:23:19;;;;;;;5.90;3.30;;;;;;;;;;5129998;28;20059;-60
2023/06/02 09:25:46;;;;;;;8.02;3.22;;;;;;;;;;5132668;28;20500;-60
2023/06/02 09:31:04;;;;;;;7.57;3.33;;;;;;;;;;5125714;27;20430;-61
2023/06/02 09:33:31;;;;;;;9.10;3.50;;;;;;;;;;5131038;28;20406;-61
2023/06/02 09:35:59;;;;;;;6.93;3.47;;;;;;;;;;5132183;28;20055;-61
2023/06/02 09:38:27;;;;;;;5.47;3.33;;;;;;;;;;5130864;28;20059;-62
2023/06/02 09:40:54;;;;;;;9.02;4.03;;;;;;;;;;5130690;28;20058;-62
2023/06/02 09:43:30;;;;;;;7.47;3.85;;;;;;;;;;5127495;27;20058;-62
2023/06/02 09:46:00;;;;;;;7.25;3.75;;;;;;;;;;5136362;27;20047;-62
2023/06/02 09:48:27;;;;;;;7.13;3.50;;;;;;;;;;5133355;27;20044;-62
2023/06/02 09:50:55;;;;;;;9.13;3.50;;;;;;;;;;5135956;27;20062;-62
2023/06/02 09:53:22;;;;;;;9.52;3.92;;;;;;;;;;5134683;27;20054;-62
2023/06/02 09:55:51;;;;;;;6.72;3.58;;;;;;;;;;5134822;27;20499;-61
2023/06/02 09:58:18;;;;;;;7.68;3.22;;;;;;;;;;5136354;27;20054;-62
2023/06/02 10:00:45;;;;;;;7.47;3.83;;;;;;;;;;5136279;27;20486;-62
2023/06/02 10:03:12;;;;;;;6.20;4.30;;;;;;;;;;5136683;27;20054;-62
2023/06/02 10:05:41;;;;;;;7.00;4.47;;;;;;;;;;5129979;27;20047;-62
2023/06/02 10:08:22;;;;;;;7.78;4.75;;;;;;;;;;5130599;27;20055;-62
2023/06/02 10:10:56;;;;;;;8.05;4.85;;;;;;;;;;5129841;27;20475;-62
2023/06/02 10:13:47;;;;;;;7.95;5.32;;;;;;;;;;5129987;27;20056;-62
2023/06/02 10:16:21;;;;;;;9.98;5.38;;;;;;;;;;5109247;27;20538;-62
2023/06/02 10:18:59;;;;;;;7.60;4.85;;;;;;;;;;5129019;27;20379;-62
2023/06/02 10:21:31;;;;;;;7.45;5.20;;;;;;;;;;5129815;27;20054;-62
2023/06/02 10:24:00;;;;;;;11.38;5.60;;;;;;;;;;5131475;27;20054;-62
2023/06/02 10:26:35;;;;;;;8.70;5.82;;;;;;;;;;5128511;27;20491;-62
2023/06/02 10:29:03;;;;;;;7.55;5.40;;;;;;;;;;5128863;27;20043;-62
2023/06/02 10:31:31;;;;;;;7.55;4.93;;;;;;;;;;5129698;27;20054;-62
2023/06/02 10:33:59;;;;;;;;;;;;;;;;;;5130376;27;20047;-62
2023/06/02 10:36:26;;;;;;;;;;;;;;;;;;5134999;27;19926;-61
2023/06/02 10:38:53;;;;;;;6.05;4.18;;;;;;;;;;5135963;27;20299;-60
2023/06/02 10:41:21;;;;;;;10.18;4.78;;;;;;;;;;5136036;27;20058;-60
2023/06/02 10:44:07;;;;;;;7.35;4.80;;;;;;;;;;5136562;27;20054;-60
2023/06/02 10:46:35;;;;;;;9.30;4.88;;;;;;;;;;5120860;27;20057;-60
2023/06/02 10:49:02;;;;;;;;;;;;;;;;;;5136716;27;20374;-60
2023/06/02 10:51:48;;;;;;;7.60;4.53;;;;;;;;;;5135469;27;20364;-60
2023/06/02 10:54:18;;;;;;;7.95;3.80;;;;;;;;;;5132611;27;20051;-60
2023/06/02 10:56:46;;;;;;;6.72;3.70;;;;;;;;;;5133953;27;20407;-60
2023/06/02 10:59:27;;;;;;;7.70;3.72;;;;;;;;;;5136068;27;20062;-62
2023/06/02 11:01:56;;;;;;;8.57;3.90;;;;;;;;;;5131270;27;20416;-61
2023/06/02 11:04:22;;;;;;;;;;;;;;;;;;5130796;27;20495;-61
2023/06/02 11:07:09;;;;;;;7.68;3.67;;;;;;;;;;5126852;27;19924;-60
2023/06/02 11:09:39;;;;;;;5.60;3.38;;;;;;;;;;5128070;27;20050;-61
2023/06/02 11:12:06;;;;;;;5.32;3.28;;;;;;;;;;5125156;27;20051;-60
2023/06/02 11:15:04;;;;;;;10.13;4.15;;;;;;;;;;5125353;27;20059;-60
2023/06/02 11:17:33;;;;;;;7.05;3.17;;;;;;;;;;5124537;27;20051;-61
2023/06/02 11:20:00;;;;;;;8.05;3.22;;;;;;;;;;5128686;27;20043;-59
2023/06/02 11:22:27;;;;;;;5.95;3.40;;;;;;;;;;5125057;27;20043;-59
2023/06/02 11:24:54;;;;;;;8.50;3.45;;;;;;;;;;5125430;27;20047;-62
2023/06/02 11:27:34;;;;;;;6.17;3.50;;;;;;;;;;5124291;27;20683;-61
2023/06/02 11:30:05;;;;;;;7.03;3.38;;;;;;;;;;5127455;27;20051;-62
2023/06/02 11:32:33;;;;;;;8.75;3.40;;;;;;;;;;5124383;27;20058;-60
2023/06/02 11:35:01;;;;;;;7.18;3.15;;;;;;;;;;5135116;27;20485;-60
2023/06/02 11:37:28;;;;;;;6.57;3.50;;;;;;;;;;5133114;27;20058;-60
2023/06/02 11:39:55;;;;;;;17.52;3.50;;;;;;;;;;5135166;27;20066;-58
2023/06/02 11:42:32;;;;;;;7.65;3.72;;;;;;;;;;5133366;27;20054;-58
2023/06/02 11:45:00;;;;;;;6.28;3.20;;;;;;;;;;5133142;27;20073;-58
2023/06/02 11:47:26;;;;;;;6.85;3.05;;;;;;;;;;5128004;27;20054;-59
2023/06/02 11:49:55;;;;;;;6.47;3.40;;;;;;;;;;5133470;27;20054;-58
2023/06/02 11:52:23;;;;;;;8.48;3.55;;;;;;;;;;5131204;27;20047;-59
2023/06/02 11:54:50;;;;;;;;;;;;;;;;;;5131624;27;20058;-59
2023/06/02 11:57:25;;;;;;;8.20;3.40;;;;;;;;;;5132754;27;20303;-60
2023/06/02 12:00:06;;;;;;;6.50;3.42;;;;;;;;;;5132036;27;20051;-59
2023/06/02 12:02:33;;;;;;;7.45;3.13;;;;;;;;;;5127906;27;20043;-59
2023/06/02 12:05:01;;;;;;;9.02;3.00;;;;;;;;;;5133458;27;20055;-61
2023/06/02 12:07:28;;;;;;;6.18;3.15;;;;;;;;;;5130077;27;20047;-61
2023/06/02 12:09:55;;;;;;;9.32;3.53;;;;;;;;;;5132211;27;20051;-61
2023/06/02 12:12:22;;;;;;;7.22;3.55;;;;;;;;;;5130629;27;20047;-61
2023/06/02 12:14:49;;;;;;;6.22;3.97;;;;;;;;;;5130352;27;20404;-61
2023/06/02 12:17:16;;;;;;;7.53;3.30;;;;;;;;;;5129627;27;20054;-61
2023/06/02 12:19:44;;;;;;;8.13;3.50;;;;;;;;;;5129065;27;20046;-61
2023/06/02 12:22:13;;;;;;;;;;;;;;;;;;5132504;27;20058;-61
2023/06/02 12:24:42;;;;;;;7.18;3.38;;;;;;;;;;5131354;27;19923;-61
2023/06/02 12:27:15;;;;;;;7.20;3.83;;;;;;;;;;5132768;27;20050;-61
2023/06/02 12:29:46;;;;;;;7.40;3.35;;;;;;;;;;5122308;27;20057;-61
2023/06/02 12:32:15;;;;;;;10.02;3.88;;;;;;;;;;5120825;27;20058;-60
2023/06/02 12:34:45;;;;;;;9.13;3.55;;;;;;;;;;5129819;27;20043;-60
2023/06/02 12:37:17;;;;;;;5.57;3.38;;;;;;;;;;5132430;27;20050;-61
2023/06/02 12:39:46;;;;;;;7.68;3.85;;;;;;;;;;5130335;27;20050;-61
2023/06/02 12:42:18;;;;;;;7.03;3.85;;;;;;;;;;5131074;27;20392;-61
2023/06/02 12:44:46;;;;;;;9.85;3.38;;;;;;;;;;5130393;27;20051;-61
2023/06/02 12:47:14;;;;;;;6.40;3.72;;;;;;;;;;5130801;27;20415;-61
2023/06/02 12:49:47;;;;;;;8.98;3.53;;;;;;;;;;5125067;27;20058;-61
2023/06/02 12:52:14;;;;;;;7.05;2.95;;;;;;;;;;5124757;27;20057;-61
2023/06/02 12:54:41;;;;;;;8.45;3.22;;;;;;;;;;5130988;27;20063;-61
2023/06/02 12:57:10;;;;;;;8.20;3.55;;;;;;;;;;5130936;27;20058;-61
2023/06/02 12:59:37;;;;;;;8.02;3.50;;;;;;;;;;5126712;27;20427;-61
2023/06/02 13:02:04;;;;;;;7.68;4.00;;;;;;;;;;5116494;27;20047;-60
2023/06/02 13:04:32;;;;;;;8.18;3.70;;;;;;;;;;5131682;27;20399;-60
2023/06/02 13:07:01;;;;;;;6.93;3.72;;;;;;;;;;5126655;27;20078;-60
2023/06/02 13:09:28;;;;;;;8.23;3.50;;;;;;;;;;5130232;27;20047;-62
2023/06/02 13:11:57;;;;;;;7.32;3.55;;;;;;;;;;5130656;27;20062;-61
2023/06/02 13:14:26;;;;;;;8.43;3.70;;;;;;;;;;5131329;27;20058;-61
2023/06/02 13:16:53;;;;;;;8.57;3.65;;;;;;;;;;5127710;27;20051;-61
2023/06/02 13:19:20;;;;;;;6.80;3.03;;;;;;;;;;5121840;27;20047;-61
2023/06/02 13:21:47;;;;;;;7.45;3.45;;;;;;;;;;5131474;28;20434;-61
2023/06/02 13:24:15;;;;;;;8.10;3.90;;;;;;;;;;5131627;28;20043;-60
2023/06/02 13:26:43;;;;;;;8.88;3.33;;;;;;;;;;5131114;28;20639;-60
2023/06/02 13:29:12;;;;;;;9.57;3.90;;;;;;;;;;5126121;27;20047;-61
2023/06/02 13:31:41;;;;;;;10.13;3.38;;;;;;;;;;5128498;27;20058;-61
2023/06/02 13:34:07;;;;;;;6.68;3.65;;;;;;;;;;5126653;28;20044;-60
2023/06/02 13:36:34;;;;;;;8.30;4.00;;;;;;;;;;5126520;28;20514;-59
2023/06/02 13:39:02;;;;;;;7.70;3.35;;;;;;;;;;5129754;28;20047;-60
2023/06/02 13:41:29;;;;;;;7.43;3.35;;;;;;;;;;5122310;28;20047;-60
2023/06/02 13:43:58;;;;;;;7.65;3.15;;;;;;;;;;5129173;28;20058;-60
2023/06/02 13:46:24;;;;;;;10.45;3.35;;;;;;;;;;5126996;27;20054;-61
2023/06/02 13:48:53;;;;;;;6.63;3.00;;;;;;;;;;5129239;28;20055;-61
2023/06/02 13:51:22;;;;;;;7.88;3.55;;;;;;;;;;5128854;28;20043;-60
2023/06/02 13:53:51;;;;;;;7.40;3.00;;;;;;;;;;5131793;28;20074;-60
2023/06/02 13:56:18;;;;;;;8.25;3.50;;;;;;;;;;5130075;28;20051;-61
2023/06/02 13:58:45;;;;;;;8.82;3.45;;;;;;;;;;5129453;28;20051;-60
2023/06/02 14:01:12;;;;;;;6.30;3.10;;;;;;;;;;5117401;27;20117;-60
2023/06/02 14:03:39;;;;;;;7.47;3.35;;;;;;;;;;5121208;27;20039;-61
2023/06/02 14:06:08;;;;;;;8.75;3.50;;;;;;;;;;5131052;28;20055;-60
2023/06/02 14:08:35;;;;;;;8.15;4.03;;;;;;;;;;5129430;28;20054;-60
2023/06/02 14:11:05;;;;;;;8.40;3.50;;;;;;;;;;5129245;28;20055;-60
2023/06/02 14:13:31;;;;;;;8.55;3.22;;;;;;;;;;5130046;28;20043;-61
2023/06/02 14:15:58;;;;;;;7.53;3.22;;;;;;;;;;5130532;27;20043;-60
2023/06/02 14:18:25;;;;;;;8.60;3.50;;;;;;;;;;5129679;27;20047;-61
2023/06/02 14:20:52;;;;;;;11.57;3.55;;;;;;;;;;5126733;27;20047;-59
2023/06/02 14:23:20;;;;;;;7.38;3.40;;;;;;;;;;5127582;28;20577;-58
2023/06/02 14:25:47;;;;;;;7.55;3.15;;;;;;;;;;5126580;27;20051;-58
2023/06/02 14:28:15;;;;;;;6.15;3.30;;;;;;;;;;5129517;28;20051;-58
2023/06/02 14:30:42;;;;;;;8.40;3.70;;;;;;;;;;5128280;27;20058;-58
2023/06/02 14:33:09;;;;;;;8.45;3.13;;;;;;;;;;5125541;27;20062;-58
2023/06/02 14:35:36;;;;;;;6.32;3.20;;;;;;;;;;5134898;27;20054;-58
2023/06/02 14:38:03;;;;;;;8.38;3.10;;;;;;;;;;5124859;27;20066;-59
2023/06/02 14:40:31;;;;;;;6.38;2.90;;;;;;;;;;5133410;27;20043;-58
2023/06/02 14:42:58;;;;;;;7.38;3.10;;;;;;;;;;5132802;27;20051;-59
2023/06/02 14:45:25;;;;;;;5.43;2.60;;;;;;;;;;5132684;27;20047;-59
2023/06/02 14:47:52;;;;;;;7.20;3.17;;;;;;;;;;5130274;27;20058;-59
2023/06/02 14:50:21;;;;;;;9.80;3.53;;;;;;;;;;5129453;27;20043;-59